createdAt,value
2018-10-21T00:00:49.691Z,5.60
2018-10-21T00:01:52.772Z,6.00
2018-10-21T00:02:56.492Z,6.20
2018-10-21T00:03:59.511Z,5.83
2018-10-21T00:05:03.013Z,5.87
2018-10-21T00:06:06.516Z,5.70
2018-10-21T00:07:10.166Z,6.22
2018-10-21T00:08:14.381Z,5.75
2018-10-21T00:09:18.231Z,6.03
2018-10-21T00:10:21.214Z,5.55
2018-10-21T00:11:24.312Z,5.65
2018-10-21T00:12:27.677Z,5.58
2018-10-21T00:13:31.050Z,5.90
2018-10-21T00:14:34.620Z,5.62
2018-10-21T00:15:38.746Z,6.10
2018-10-21T00:16:41.631Z,5.62
2018-10-21T00:17:45.101Z,5.53
2018-10-21T00:18:48.109Z,5.75
2018-10-21T00:19:51.194Z,5.58
2018-10-21T00:20:55.660Z,5.37
2018-10-21T00:21:59.483Z,5.83
2018-10-21T00:23:02.547Z,6.15
2018-10-21T00:24:05.761Z,5.70
2018-10-21T00:25:09.838Z,5.80
2018-10-21T00:26:13.640Z,5.05
2018-10-21T00:27:16.739Z,5.40
2018-10-21T00:28:19.818Z,5.40
2018-10-21T00:29:23.268Z,5.65
2018-10-21T00:30:26.346Z,5.25
2018-10-21T00:31:29.546Z,5.47
2018-10-21T00:32:38.029Z,4.90
2018-10-21T00:33:41.449Z,5.75
2018-10-21T00:34:44.550Z,5.47
2018-10-21T00:35:48.102Z,5.50
2018-10-21T00:36:51.131Z,5.22
2018-10-21T00:37:54.269Z,5.25
2018-10-21T00:38:57.335Z,5.55
2018-10-21T00:40:00.477Z,5.42
2018-10-21T00:41:03.496Z,5.10
2018-10-21T00:42:07.537Z,5.60
2018-10-21T00:43:10.666Z,5.75
2018-10-21T00:44:13.751Z,5.87
2018-10-21T00:45:16.885Z,5.70
2018-10-21T00:46:20.920Z,6.03
2018-10-21T00:47:24.968Z,4.67
2018-10-21T00:48:28.437Z,5.72
2018-10-21T00:49:31.501Z,5.20
2018-10-21T00:50:34.554Z,5.08
2018-10-21T00:51:37.954Z,5.55
2018-10-21T00:52:41.413Z,5.95
2018-10-21T00:53:44.518Z,5.20
2018-10-21T00:54:48.950Z,5.12
2018-10-21T00:55:51.970Z,5.20
2018-10-21T00:56:55.135Z,4.92
2018-10-21T00:57:58.669Z,5.22
2018-10-21T00:59:01.734Z,5.87
2018-10-21T01:00:07.176Z,5.50
2018-10-21T01:01:10.301Z,5.08
2018-10-21T01:02:13.935Z,5.78
2018-10-21T01:03:17.431Z,5.30
2018-10-21T01:04:20.534Z,4.97
2018-10-21T01:05:23.562Z,5.00
2018-10-21T01:06:26.668Z,4.67
2018-10-21T01:07:29.752Z,5.15
2018-10-21T01:08:32.787Z,5.35
2018-10-21T01:09:36.530Z,4.92
2018-10-21T01:10:40.058Z,5.05
2018-10-21T01:11:43.628Z,5.60
2018-10-21T01:12:47.433Z,5.17
2018-10-21T01:13:51.278Z,4.92
2018-10-21T01:14:54.554Z,5.58
2018-10-21T01:15:59.200Z,4.95
2018-10-21T01:17:02.871Z,4.95
2018-10-21T01:18:06.264Z,5.08
2018-10-21T01:19:10.188Z,4.95
2018-10-21T01:20:13.949Z,5.45
2018-10-21T01:21:17.124Z,5.17
2018-10-21T01:22:21.656Z,5.05
2018-10-21T01:23:26.220Z,4.70
2018-10-21T01:24:30.070Z,4.65
2018-10-21T01:25:33.704Z,4.65
2018-10-21T01:26:36.916Z,4.80
2018-10-21T01:27:41.114Z,4.90
2018-10-21T01:28:44.276Z,4.83
2018-10-21T01:29:48.830Z,4.90
2018-10-21T01:30:51.865Z,4.87
2018-10-21T01:31:55.014Z,5.03
2018-10-21T01:32:58.153Z,4.33
2018-10-21T01:34:01.166Z,4.90
2018-10-21T01:35:04.585Z,4.92
2018-10-21T01:36:08.357Z,5.00
2018-10-21T01:37:11.751Z,4.33
2018-10-21T01:38:14.786Z,4.92
2018-10-21T01:39:23.683Z,4.85
2018-10-21T01:40:32.659Z,4.92
2018-10-21T01:41:35.717Z,4.45
2018-10-21T01:42:40.349Z,4.37
2018-10-21T01:43:43.357Z,5.15
2018-10-21T01:44:47.119Z,5.20
2018-10-21T01:45:50.277Z,4.83
2018-10-21T01:46:53.997Z,5.33
2018-10-21T01:47:59.335Z,4.85
2018-10-21T01:49:02.946Z,4.40
2018-10-21T01:50:06.289Z,4.67
2018-10-21T01:51:09.383Z,4.78
2018-10-21T01:52:13.376Z,4.90
2018-10-21T01:53:18.358Z,4.45
2018-10-21T01:54:25.904Z,4.50
2018-10-21T01:55:30.246Z,4.30
2018-10-21T01:56:33.451Z,5.00
2018-10-21T01:57:36.522Z,4.70
2018-10-21T01:58:40.089Z,4.90
2018-10-21T01:59:43.643Z,5.08
2018-10-21T02:00:46.742Z,4.70
2018-10-21T02:01:49.852Z,4.75
2018-10-21T02:02:53.276Z,4.97
2018-10-21T02:03:56.879Z,4.75
2018-10-21T02:04:59.934Z,4.30
2018-10-21T02:06:02.961Z,4.70
2018-10-21T02:07:06.014Z,4.60
2018-10-21T02:08:10.325Z,4.50
2018-10-21T02:09:13.424Z,4.35
2018-10-21T02:10:16.471Z,4.75
2018-10-21T02:11:19.554Z,4.70
2018-10-21T02:12:24.954Z,4.55
2018-10-21T02:13:27.947Z,4.28
2018-10-21T02:14:30.989Z,4.65
2018-10-21T02:15:34.006Z,4.95
2018-10-21T02:16:37.144Z,4.70
2018-10-21T02:17:41.694Z,4.33
2018-10-21T02:18:44.836Z,4.90
2018-10-21T02:19:47.862Z,4.35
2018-10-21T02:20:50.869Z,4.60
2018-10-21T02:21:54.181Z,4.33
2018-10-21T02:22:57.306Z,4.58
2018-10-21T02:24:01.844Z,4.55
2018-10-21T02:25:05.092Z,4.25
2018-10-21T02:26:08.582Z,4.53
2018-10-21T02:27:13.118Z,4.45
2018-10-21T02:28:16.239Z,4.75
2018-10-21T02:29:19.341Z,3.92
2018-10-21T02:30:24.718Z,4.60
2018-10-21T02:31:28.757Z,4.28
2018-10-21T02:32:31.811Z,4.30
2018-10-21T02:33:35.034Z,4.22
2018-10-21T02:34:39.378Z,4.20
2018-10-21T02:35:42.682Z,4.20
2018-10-21T02:36:45.750Z,4.35
2018-10-21T02:37:49.834Z,4.30
2018-10-21T02:38:52.978Z,4.80
2018-10-21T02:39:56.037Z,4.20
2018-10-21T02:41:19.585Z,4.28
2018-10-21T02:42:22.775Z,4.53
2018-10-21T02:43:26.112Z,4.28
2018-10-21T02:44:29.213Z,4.42
2018-10-21T02:45:32.322Z,4.53
2018-10-21T02:46:36.453Z,4.30
2018-10-21T02:47:39.614Z,4.45
2018-10-21T02:48:43.229Z,4.75
2018-10-21T02:49:46.297Z,4.08
2018-10-21T02:50:49.433Z,4.22
2018-10-21T02:51:57.866Z,4.33
2018-10-21T02:53:02.365Z,4.00
2018-10-21T02:54:06.169Z,4.60
2018-10-21T02:55:09.281Z,4.55
2018-10-21T02:56:12.570Z,4.50
2018-10-21T02:57:15.984Z,3.83
2018-10-21T02:58:19.116Z,4.42
2018-10-21T02:59:23.554Z,3.92
2018-10-21T03:00:26.662Z,4.53
2018-10-21T03:01:29.709Z,4.20
2018-10-21T03:02:32.854Z,4.30
2018-10-21T03:03:35.861Z,4.17
2018-10-21T03:04:38.845Z,4.08
2018-10-21T03:05:42.139Z,4.30
2018-10-21T03:06:45.337Z,4.17
2018-10-21T03:07:48.470Z,4.12
2018-10-21T03:08:51.567Z,4.20
2018-10-21T03:09:54.601Z,4.37
2018-10-21T03:10:57.686Z,4.25
2018-10-21T03:12:00.820Z,3.92
2018-10-21T03:13:03.931Z,3.98
2018-10-21T03:14:07.473Z,4.08
2018-10-21T03:15:10.527Z,3.92
2018-10-21T03:16:14.273Z,4.40
2018-10-21T03:17:17.381Z,4.08
2018-10-21T03:18:20.539Z,4.22
2018-10-21T03:19:24.638Z,4.33
2018-10-21T03:20:27.645Z,4.22
2018-10-21T03:21:30.731Z,4.00
2018-10-21T03:22:34.434Z,4.30
2018-10-21T03:23:38.030Z,4.35
2018-10-21T03:24:41.352Z,4.08
2018-10-21T03:25:44.988Z,4.05
2018-10-21T03:26:49.709Z,4.10
2018-10-21T03:27:52.712Z,4.30
2018-10-21T03:28:55.716Z,3.55
2018-10-21T03:29:58.789Z,3.90
2018-10-21T03:31:02.339Z,4.00
2018-10-21T03:32:06.041Z,4.00
2018-10-21T03:33:09.819Z,4.10
2018-10-21T03:34:12.778Z,4.22
2018-10-21T03:35:16.209Z,3.77
2018-10-21T03:36:19.661Z,4.10
2018-10-21T03:37:24.277Z,4.17
2018-10-21T03:38:28.262Z,4.22
2018-10-21T03:39:31.747Z,4.22
2018-10-21T03:40:35.366Z,4.00
2018-10-21T03:41:38.938Z,4.12
2018-10-21T03:42:42.016Z,3.77
2018-10-21T03:43:45.034Z,4.50
2018-10-21T03:44:48.130Z,4.10
2018-10-21T03:45:51.393Z,4.17
2018-10-21T03:46:54.433Z,3.77
2018-10-21T03:47:57.545Z,3.80
2018-10-21T03:49:01.029Z,3.33
2018-10-21T03:50:06.221Z,4.30
2018-10-21T03:51:10.155Z,3.87
2018-10-21T03:52:13.276Z,4.08
2018-10-21T03:53:17.239Z,4.00
2018-10-21T03:54:20.657Z,4.00
2018-10-21T03:55:23.686Z,4.20
2018-10-21T03:56:27.663Z,3.80
2018-10-21T03:57:30.732Z,3.70
2018-10-21T03:58:33.785Z,3.65
2018-10-21T03:59:36.842Z,4.35
2018-10-21T04:00:41.049Z,4.03
2018-10-21T04:01:44.733Z,3.80
2018-10-21T04:02:48.757Z,3.90
2018-10-21T04:03:51.758Z,3.80
2018-10-21T04:04:54.833Z,3.90
2018-10-21T04:05:58.240Z,3.90
2018-10-21T04:07:01.318Z,4.03
2018-10-21T04:08:04.649Z,3.65
2018-10-21T04:09:08.569Z,3.67
2018-10-21T04:10:12.347Z,4.20
2018-10-21T04:11:15.411Z,3.72
2018-10-21T04:12:18.606Z,3.87
2018-10-21T04:13:21.868Z,3.62
2018-10-21T04:14:25.597Z,3.70
2018-10-21T04:15:28.996Z,3.98
2018-10-21T04:16:32.521Z,4.00
2018-10-21T04:17:36.230Z,3.65
2018-10-21T04:18:39.280Z,3.50
2018-10-21T04:19:42.620Z,3.42
2018-10-21T04:20:45.691Z,4.12
2018-10-21T04:21:48.890Z,3.58
2018-10-21T04:22:54.309Z,3.60
2018-10-21T04:23:57.414Z,4.08
2018-10-21T04:25:01.114Z,3.87
2018-10-21T04:26:04.804Z,3.80
2018-10-21T04:27:07.969Z,3.70
2018-10-21T04:28:12.645Z,3.60
2018-10-21T04:29:15.752Z,4.00
2018-10-21T04:30:27.094Z,3.65
2018-10-21T04:31:30.213Z,3.58
2018-10-21T04:32:34.649Z,4.10
2018-10-21T04:33:42.934Z,4.10
2018-10-21T04:34:46.893Z,3.75
2018-10-21T04:35:50.484Z,3.80
2018-10-21T04:37:02.335Z,3.92
2018-10-21T04:38:29.121Z,3.80
2018-10-21T04:39:44.476Z,4.10
2018-10-21T04:40:47.602Z,3.52
2018-10-21T04:41:51.364Z,3.95
2018-10-21T04:42:54.394Z,4.15
2018-10-21T04:43:57.434Z,3.85
2018-10-21T04:45:01.388Z,3.98
2018-10-21T04:46:04.553Z,3.45
2018-10-21T04:47:07.811Z,4.30
2018-10-21T04:48:10.719Z,3.90
2018-10-21T04:49:13.835Z,3.72
2018-10-21T04:50:16.906Z,3.30
2018-10-21T04:51:20.545Z,3.83
2018-10-21T04:52:24.177Z,3.72
2018-10-21T04:53:27.285Z,3.67
2018-10-21T04:54:34.541Z,3.60
2018-10-21T04:55:37.755Z,3.92
2018-10-21T04:56:41.249Z,3.80
2018-10-21T04:57:46.346Z,3.50
2018-10-21T04:58:49.394Z,4.15
2018-10-21T04:59:52.869Z,3.90
2018-10-21T05:00:55.925Z,3.52
2018-10-21T05:01:59.478Z,3.90
2018-10-21T05:03:02.599Z,3.80
2018-10-21T05:04:05.912Z,3.50
2018-10-21T05:05:10.979Z,3.98
2018-10-21T05:06:14.041Z,3.75
2018-10-21T05:07:17.192Z,3.80
2018-10-21T05:08:20.189Z,3.80
2018-10-21T05:09:24.282Z,3.77
2018-10-21T05:10:37.117Z,3.60
2018-10-21T05:11:40.395Z,3.77
2018-10-21T05:12:43.483Z,3.77
2018-10-21T05:13:46.743Z,3.40
2018-10-21T05:14:49.744Z,3.65
2018-10-21T05:15:52.786Z,4.15
2018-10-21T05:16:56.766Z,3.40
2018-10-21T05:18:00.019Z,3.80
2018-10-21T05:19:03.434Z,3.70
2018-10-21T05:20:08.533Z,3.70
2018-10-21T05:21:12.094Z,3.52
2018-10-21T05:22:16.396Z,3.70
2018-10-21T05:23:20.250Z,3.42
2018-10-21T05:24:23.362Z,3.80
2018-10-21T05:25:26.404Z,3.47
2018-10-21T05:26:29.469Z,3.70
2018-10-21T05:27:32.541Z,3.52
2018-10-21T05:28:35.525Z,3.47
2018-10-21T05:29:38.506Z,3.27
2018-10-21T05:30:41.549Z,3.37
2018-10-21T05:31:44.517Z,3.65
2018-10-21T05:32:47.498Z,3.45
2018-10-21T05:33:50.484Z,3.77
2018-10-21T05:34:53.462Z,3.80
2018-10-21T05:35:56.469Z,3.55
2018-10-21T05:36:59.471Z,3.92
2018-10-21T05:38:02.498Z,3.70
2018-10-21T05:39:08.531Z,3.50
2018-10-21T05:40:13.747Z,3.58
2018-10-21T05:41:16.741Z,3.58
2018-10-21T05:42:19.708Z,3.72
2018-10-21T05:43:22.999Z,3.50
2018-10-21T05:44:26.010Z,3.85
2018-10-21T05:45:29.004Z,3.42
2018-10-21T05:46:41.058Z,3.52
2018-10-21T05:47:44.057Z,3.45
2018-10-21T05:48:47.049Z,3.47
2018-10-21T05:49:50.046Z,3.77
2018-10-21T05:50:53.030Z,2.92
2018-10-21T05:51:56.054Z,3.30
2018-10-21T05:52:59.037Z,3.40
2018-10-21T05:54:02.017Z,3.85
2018-10-21T05:55:05.278Z,3.60
2018-10-21T05:56:08.573Z,3.92
2018-10-21T05:57:11.605Z,3.70
2018-10-21T05:58:14.642Z,3.60
2018-10-21T05:59:18.069Z,3.30
2018-10-21T06:00:21.064Z,3.77
2018-10-21T06:01:24.037Z,3.40
2018-10-21T06:02:27.334Z,3.33
2018-10-21T06:03:30.304Z,3.40
2018-10-21T06:04:33.602Z,3.50
2018-10-21T06:05:46.397Z,3.40
2018-10-21T06:06:49.531Z,3.08
2018-10-21T06:07:52.508Z,3.33
2018-10-21T06:08:55.506Z,3.37
2018-10-21T06:09:58.498Z,3.12
2018-10-21T06:11:01.450Z,3.55
2018-10-21T06:12:04.869Z,3.45
2018-10-21T06:13:07.872Z,3.50
2018-10-21T06:14:10.865Z,3.60
2018-10-21T06:15:13.920Z,3.50
2018-10-21T06:16:16.949Z,3.47
2018-10-21T06:17:22.497Z,3.35
2018-10-21T06:18:26.692Z,3.58
2018-10-21T06:19:32.434Z,3.20
2018-10-21T06:20:36.968Z,3.27
2018-10-21T06:21:40.341Z,3.35
2018-10-21T06:22:44.947Z,3.45
2018-10-21T06:23:48.012Z,3.55
2018-10-21T06:24:50.957Z,3.62
2018-10-21T06:25:54.161Z,3.40
2018-10-21T06:26:57.225Z,3.83
2018-10-21T06:28:00.420Z,3.37
2018-10-21T06:29:04.251Z,3.70
2018-10-21T06:30:09.295Z,3.25
2018-10-21T06:31:13.101Z,3.40
2018-10-21T06:32:16.805Z,3.25
2018-10-21T06:33:21.237Z,3.22
2018-10-21T06:34:25.026Z,3.40
2018-10-21T06:35:29.225Z,3.98
2018-10-21T06:36:32.976Z,2.90
2018-10-21T06:37:36.016Z,3.45
2018-10-21T06:38:39.066Z,3.40
2018-10-21T06:39:42.201Z,3.10
2018-10-21T06:40:48.309Z,3.17
2018-10-21T06:41:54.768Z,3.40
2018-10-21T06:42:58.522Z,3.08
2018-10-21T06:44:02.305Z,3.42
2018-10-21T06:45:06.585Z,3.42
2018-10-21T06:46:11.029Z,3.20
2018-10-21T06:47:14.056Z,3.30
2018-10-21T06:48:17.190Z,3.40
2018-10-21T06:49:20.276Z,3.60
2018-10-21T06:50:23.367Z,3.20
2018-10-21T06:51:26.790Z,3.37
2018-10-21T06:52:30.613Z,3.25
2018-10-21T06:53:33.713Z,3.17
2018-10-21T06:54:36.838Z,2.85
2018-10-21T06:55:39.925Z,2.87
2018-10-21T06:56:43.238Z,3.33
2018-10-21T06:57:46.700Z,3.10
2018-10-21T06:58:51.394Z,3.00
2018-10-21T06:59:55.165Z,3.22
2018-10-21T07:01:03.273Z,3.22
2018-10-21T07:02:09.142Z,3.47
2018-10-21T07:03:12.196Z,3.05
2018-10-21T07:04:15.332Z,3.02
2018-10-21T07:05:30.097Z,3.10
2018-10-21T07:06:33.173Z,3.10
2018-10-21T07:07:36.333Z,3.15
2018-10-21T07:08:39.410Z,3.17
2018-10-21T07:09:43.766Z,3.10
2018-10-21T07:10:46.922Z,3.10
2018-10-21T07:11:50.056Z,2.92
2018-10-21T07:12:53.158Z,3.22
2018-10-21T07:13:56.543Z,3.25
2018-10-21T07:15:00.475Z,3.15
2018-10-21T07:16:04.458Z,2.95
2018-10-21T07:17:07.490Z,2.83
2018-10-21T07:18:10.931Z,2.77
2018-10-21T07:19:14.927Z,3.22
2018-10-21T07:20:19.041Z,2.83
2018-10-21T07:21:22.750Z,3.30
2018-10-21T07:22:25.805Z,3.08
2018-10-21T07:23:29.454Z,3.30
2018-10-21T07:24:32.522Z,2.80
2018-10-21T07:25:36.261Z,2.60
2018-10-21T07:26:40.469Z,3.30
2018-10-21T07:27:43.474Z,3.27
2018-10-21T07:28:48.004Z,2.90
2018-10-21T07:29:51.671Z,3.33
2018-10-21T07:30:55.353Z,3.02
2018-10-21T07:32:00.210Z,3.00
2018-10-21T07:33:06.945Z,3.37
2018-10-21T07:34:15.502Z,2.90
2018-10-21T07:35:19.930Z,2.95
2018-10-21T07:36:23.346Z,2.80
2018-10-21T07:37:27.918Z,2.90
2018-10-21T07:38:32.028Z,2.77
2018-10-21T07:39:35.790Z,2.92
2018-10-21T07:40:38.853Z,3.02
2018-10-21T07:41:42.078Z,2.67
2018-10-21T07:42:46.274Z,2.92
2018-10-21T07:43:49.918Z,2.95
2018-10-21T07:44:54.706Z,2.85
2018-10-21T07:45:57.820Z,3.15
2018-10-21T07:47:01.537Z,3.00
2018-10-21T07:48:05.097Z,2.77
2018-10-21T07:49:09.262Z,2.90
2018-10-21T07:50:13.177Z,2.42
2018-10-21T07:51:16.268Z,2.50
2018-10-21T07:52:20.214Z,3.08
2018-10-21T07:53:24.513Z,2.90
2018-10-21T07:54:27.890Z,2.80
2018-10-21T07:55:31.497Z,2.75
2018-10-21T07:56:34.601Z,3.02
2018-10-21T07:57:37.717Z,2.70
2018-10-21T07:58:40.918Z,3.12
2018-10-21T07:59:45.777Z,2.83
2018-10-21T08:00:49.328Z,2.50
2018-10-21T08:01:53.014Z,2.92
2018-10-21T08:02:58.001Z,3.02
2018-10-21T08:04:02.574Z,2.90
2018-10-21T08:05:06.653Z,3.58
2018-10-21T08:06:23.190Z,4.55
2018-10-21T08:07:37.683Z,5.33
2018-10-21T08:08:40.919Z,5.85
2018-10-21T08:09:44.737Z,6.17
2018-10-21T08:10:48.539Z,5.83
2018-10-21T08:11:51.646Z,6.28
2018-10-21T08:12:55.667Z,6.42
2018-10-21T08:14:02.322Z,6.62
2018-10-21T08:15:06.924Z,6.85
2018-10-21T08:16:09.979Z,7.58
2018-10-21T08:17:12.922Z,7.35
2018-10-21T08:18:17.900Z,7.22
2018-10-21T08:19:20.968Z,8.05
2018-10-21T08:20:24.262Z,7.15
2018-10-21T08:21:28.537Z,8.05
2018-10-21T08:22:31.745Z,7.40
2018-10-21T08:23:34.980Z,7.65
2018-10-21T08:24:38.689Z,7.55
2018-10-21T08:25:42.409Z,7.72
2018-10-21T08:26:46.078Z,8.45
2018-10-21T08:27:50.060Z,8.48
2018-10-21T08:28:53.161Z,7.70
2018-10-21T08:29:56.230Z,8.28
2018-10-21T08:30:59.450Z,8.18
2018-10-21T08:32:02.701Z,8.48
2018-10-21T08:33:06.321Z,8.40
2018-10-21T08:34:10.400Z,8.10
2018-10-21T08:35:13.814Z,7.75
2018-10-21T08:36:17.614Z,7.65
2018-10-21T08:37:21.325Z,7.62
2018-10-21T08:38:24.454Z,8.03
2018-10-21T08:39:28.318Z,8.13
2018-10-21T08:40:32.497Z,7.95
2018-10-21T08:41:36.192Z,7.45
2018-10-21T08:42:39.329Z,6.85
2018-10-21T08:43:42.474Z,7.05
2018-10-21T08:44:45.562Z,6.92
2018-10-21T08:45:48.738Z,7.20
2018-10-21T08:46:51.986Z,6.92
2018-10-21T08:47:55.376Z,6.80
2018-10-21T08:48:58.543Z,7.30
2018-10-21T08:50:02.057Z,6.97
2018-10-21T08:51:05.199Z,6.72
2018-10-21T08:52:08.634Z,6.50
2018-10-21T08:53:11.855Z,6.58
2018-10-21T08:54:14.986Z,7.25
2018-10-21T08:55:18.202Z,7.05
2018-10-21T08:56:21.306Z,7.00
2018-10-21T08:57:24.438Z,7.47
2018-10-21T08:58:27.645Z,7.45
2018-10-21T08:59:30.763Z,6.67
2018-10-21T09:00:33.993Z,7.78
2018-10-21T09:01:37.246Z,7.35
2018-10-21T09:02:40.830Z,7.62
2018-10-21T09:03:44.019Z,7.45
2018-10-21T09:04:47.217Z,8.23
2018-10-21T09:05:50.511Z,9.05
2018-10-21T09:06:53.766Z,8.40
2018-10-21T09:07:56.949Z,8.95
2018-10-21T09:09:00.117Z,8.48
2018-10-21T09:10:03.494Z,8.70
2018-10-21T09:11:06.682Z,8.20
2018-10-21T09:12:09.666Z,8.70
2018-10-21T09:13:12.938Z,7.87
2018-10-21T09:14:16.126Z,8.48
2018-10-21T09:15:19.428Z,8.65
2018-10-21T09:16:22.715Z,7.90
2018-10-21T09:17:25.590Z,8.13
2018-10-21T09:18:28.623Z,8.18
2018-10-21T09:19:31.783Z,8.88
2018-10-21T09:20:34.970Z,8.38
2018-10-21T09:21:38.029Z,8.98
2018-10-21T09:22:41.499Z,9.53
2018-10-21T09:23:44.819Z,9.33
2018-10-21T09:24:48.253Z,9.45
2018-10-21T09:25:52.882Z,9.50
2018-10-21T09:27:02.433Z,9.38
2018-10-21T09:28:05.861Z,8.85
2018-10-21T09:29:09.076Z,7.80
2018-10-21T09:30:14.301Z,9.05
2018-10-21T09:31:17.656Z,8.45
2018-10-21T09:32:21.104Z,8.65
2018-10-21T09:33:24.488Z,9.35
2018-10-21T09:34:27.819Z,8.58
2018-10-21T09:35:30.930Z,9.00
2018-10-21T09:36:34.345Z,10.00
2018-10-21T09:37:37.487Z,9.08
2018-10-21T09:38:40.534Z,8.50
2018-10-21T09:39:43.727Z,8.68
2018-10-21T09:40:46.934Z,9.73
2018-10-21T09:41:50.202Z,9.70
2018-10-21T09:42:53.528Z,10.03
2018-10-21T09:43:56.610Z,10.18
2018-10-21T09:44:59.996Z,10.85
2018-10-21T09:46:03.247Z,10.30
2018-10-21T09:47:06.418Z,10.20
2018-10-21T09:48:09.643Z,10.25
2018-10-21T09:49:13.096Z,9.98
2018-10-21T09:50:16.181Z,9.73
2018-10-21T09:51:19.221Z,9.88
2018-10-21T09:52:22.388Z,9.48
2018-10-21T09:53:25.621Z,9.70
2018-10-21T09:54:28.829Z,9.48
2018-10-21T09:55:32.001Z,9.48
2018-10-21T09:56:35.550Z,11.53
2018-10-21T09:57:39.740Z,10.68
2018-10-21T09:58:43.013Z,9.63
2018-10-21T09:59:46.089Z,8.70
2018-10-21T10:00:54.588Z,9.78
2018-10-21T10:02:03.010Z,9.20
2018-10-21T10:03:07.943Z,9.63
2018-10-21T10:04:11.001Z,9.38
2018-10-21T10:05:14.032Z,9.78
2018-10-21T10:06:18.877Z,9.28
2018-10-21T10:07:22.050Z,9.38
2018-10-21T10:08:26.057Z,9.65
2018-10-21T10:09:29.161Z,9.33
2018-10-21T10:10:32.344Z,9.50
2018-10-21T10:11:36.055Z,8.88
2018-10-21T10:12:39.387Z,8.93
2018-10-21T10:13:42.598Z,9.15
2018-10-21T10:14:46.155Z,8.63
2018-10-21T10:15:50.945Z,8.48
2018-10-21T10:16:54.240Z,8.93
2018-10-21T10:17:58.069Z,9.00
2018-10-21T10:19:01.786Z,9.85
2018-10-21T10:20:07.800Z,9.33
2018-10-21T10:21:10.838Z,8.78
2018-10-21T10:22:13.954Z,8.75
2018-10-21T10:23:17.395Z,9.00
2018-10-21T10:24:20.937Z,9.15
2018-10-21T10:25:24.509Z,9.68
2018-10-21T10:26:28.355Z,9.30
2018-10-21T10:27:31.421Z,8.70
2018-10-21T10:28:35.205Z,8.38
2018-10-21T10:29:39.779Z,9.25
2018-10-21T10:30:43.458Z,9.48
2018-10-21T10:31:46.521Z,8.40
2018-10-21T10:32:51.620Z,9.60
2018-10-21T10:33:54.743Z,8.80
2018-10-21T10:34:57.795Z,8.53
2018-10-21T10:36:01.627Z,7.78
2018-10-21T10:37:05.706Z,7.80
2018-10-21T10:38:09.387Z,7.70
2018-10-21T10:39:14.794Z,8.80
2018-10-21T10:40:18.017Z,8.15
2018-10-21T10:41:22.390Z,8.80
2018-10-21T10:42:25.490Z,8.00
2018-10-21T10:43:29.400Z,7.95
2018-10-21T10:44:32.659Z,8.08
2018-10-21T10:45:35.774Z,7.03
2018-10-21T10:46:39.088Z,7.17
2018-10-21T10:47:42.187Z,7.20
2018-10-21T10:48:46.408Z,6.42
2018-10-21T10:49:50.393Z,6.42
2018-10-21T10:50:55.341Z,7.33
2018-10-21T10:51:58.465Z,7.30
2018-10-21T10:53:01.641Z,6.75
2018-10-21T10:54:05.238Z,7.22
2018-10-21T10:55:08.760Z,5.47
2018-10-21T10:56:11.758Z,7.53
2018-10-21T10:57:15.002Z,7.65
2018-10-21T10:58:19.291Z,6.03
2018-10-21T10:59:23.138Z,6.28
2018-10-21T11:00:26.780Z,6.35
2018-10-21T11:01:29.849Z,6.10
2018-10-21T11:02:32.925Z,5.80
2018-10-21T11:03:36.005Z,6.33
2018-10-21T11:04:40.153Z,6.28
2018-10-21T11:05:43.794Z,6.30
2018-10-21T11:06:46.876Z,7.17
2018-10-21T11:07:50.588Z,5.85
2018-10-21T11:08:53.677Z,5.72
2018-10-21T11:09:56.753Z,5.17
2018-10-21T11:11:01.810Z,5.12
2018-10-21T11:12:05.041Z,5.22
2018-10-21T11:13:08.126Z,5.35
2018-10-21T11:14:11.198Z,5.12
2018-10-21T11:15:14.302Z,5.53
2018-10-21T11:16:17.497Z,5.37
2018-10-21T11:17:23.510Z,5.58
2018-10-21T11:18:26.780Z,6.35
2018-10-21T11:19:29.846Z,6.28
2018-10-21T11:20:33.390Z,5.10
2018-10-21T11:21:37.084Z,4.60
2018-10-21T11:22:40.173Z,4.85
2018-10-21T11:23:45.384Z,4.28
2018-10-21T11:24:49.634Z,3.65
2018-10-21T11:25:52.714Z,3.98
2018-10-21T11:26:55.908Z,4.33
2018-10-21T11:27:59.357Z,4.40
2018-10-21T11:29:02.332Z,4.33
2018-10-21T11:30:06.042Z,3.72
2018-10-21T11:31:09.182Z,4.42
2018-10-21T11:32:12.200Z,4.37
2018-10-21T11:33:15.386Z,4.20
2018-10-21T11:34:18.970Z,3.85
2018-10-21T11:35:23.712Z,4.53
2018-10-21T11:36:27.773Z,3.85
2018-10-21T11:37:31.019Z,4.42
2018-10-21T11:38:36.238Z,3.65
2018-10-21T11:39:39.495Z,3.92
2018-10-21T11:40:42.595Z,3.45
2018-10-21T11:41:45.677Z,3.70
2018-10-21T11:42:48.671Z,3.83
2018-10-21T11:43:51.674Z,3.70
2018-10-21T11:44:55.723Z,3.52
2018-10-21T11:45:58.800Z,3.85
2018-10-21T11:47:01.934Z,4.03
2018-10-21T11:48:06.142Z,4.22
2018-10-21T11:49:09.227Z,3.90
2018-10-21T11:50:12.390Z,3.45
2018-10-21T11:51:15.441Z,3.22
2018-10-21T11:52:19.814Z,3.25
2018-10-21T11:53:23.146Z,3.35
2018-10-21T11:54:26.287Z,3.55
2018-10-21T11:55:34.071Z,2.90
2018-10-21T11:56:38.286Z,3.15
2018-10-21T11:57:42.515Z,3.45
2018-10-21T11:58:45.564Z,3.30
2018-10-21T11:59:48.719Z,2.60
2018-10-21T12:00:51.811Z,3.37
2018-10-21T12:01:55.865Z,3.15
2018-10-21T12:02:59.593Z,2.90
2018-10-21T12:04:03.207Z,2.80
2018-10-21T12:05:07.110Z,3.08
2018-10-21T12:06:10.158Z,3.02
2018-10-21T12:07:13.933Z,3.00
2018-10-21T12:08:17.000Z,2.70
2018-10-21T12:09:21.588Z,3.25
2018-10-21T12:10:26.078Z,2.85
2018-10-21T12:11:29.549Z,2.67
2018-10-21T12:12:32.534Z,3.15
2018-10-21T12:13:36.766Z,2.72
2018-10-21T12:14:39.849Z,2.55
2018-10-21T12:15:42.985Z,2.77
2018-10-21T12:16:46.069Z,2.95
2018-10-21T12:17:49.252Z,2.58
2018-10-21T12:18:52.256Z,2.90
2018-10-21T12:19:55.451Z,2.85
2018-10-21T12:20:58.454Z,2.90
2018-10-21T12:22:01.626Z,2.98
2018-10-21T12:23:05.506Z,3.22
2018-10-21T12:24:08.701Z,3.45
2018-10-21T12:25:11.869Z,3.33
2018-10-21T12:26:15.401Z,3.47
2018-10-21T12:27:18.504Z,3.35
2018-10-21T12:28:22.484Z,3.65
2018-10-21T12:29:26.669Z,3.40
2018-10-21T12:30:30.279Z,3.50
2018-10-21T12:31:33.794Z,3.40
2018-10-21T12:32:37.879Z,2.85
2018-10-21T12:33:43.950Z,3.42
2018-10-21T12:34:47.104Z,3.40
2018-10-21T12:35:50.910Z,3.72
2018-10-21T12:36:57.909Z,3.47
2018-10-21T12:38:02.421Z,3.60
2018-10-21T12:39:09.318Z,3.80
2018-10-21T12:40:12.658Z,3.87
2018-10-21T12:41:15.904Z,3.85
2018-10-21T12:42:19.631Z,3.40
2018-10-21T12:43:22.697Z,3.17
2018-10-21T12:44:26.805Z,3.17
2018-10-21T12:45:31.373Z,3.87
2018-10-21T12:46:35.194Z,3.12
2018-10-21T12:47:39.281Z,3.40
2018-10-21T12:48:42.772Z,3.17
2018-10-21T12:49:46.909Z,2.87
2018-10-21T12:50:53.478Z,3.40
2018-10-21T12:51:56.678Z,3.05
2018-10-21T12:52:59.801Z,2.98
2018-10-21T12:54:03.265Z,3.25
2018-10-21T12:55:07.509Z,3.35
2018-10-21T12:56:10.781Z,2.90
2018-10-21T12:57:14.069Z,3.30
2018-10-21T12:58:17.883Z,2.70
2018-10-21T12:59:20.918Z,3.25
2018-10-21T13:00:24.859Z,3.02
2018-10-21T13:01:28.443Z,2.85
2018-10-21T13:02:31.610Z,2.98
2018-10-21T13:03:35.976Z,3.40
2018-10-21T13:04:39.434Z,3.10
2018-10-21T13:05:43.028Z,2.60
2018-10-21T13:06:46.761Z,2.90
2018-10-21T13:07:52.428Z,2.42
2018-10-21T13:08:55.533Z,2.77
2018-10-21T13:09:58.701Z,3.30
2018-10-21T13:11:02.750Z,3.02
2018-10-21T13:12:05.891Z,2.80
2018-10-21T13:13:09.094Z,2.67
2018-10-21T13:14:12.925Z,2.72
2018-10-21T13:15:16.648Z,2.83
2018-10-21T13:16:20.114Z,2.75
2018-10-21T13:17:24.595Z,2.75
2018-10-21T13:18:27.701Z,2.67
2018-10-21T13:19:30.842Z,2.70
2018-10-21T13:20:34.093Z,2.83
2018-10-21T13:21:38.617Z,2.90
2018-10-21T13:22:42.193Z,3.00
2018-10-21T13:23:48.221Z,3.20
2018-10-21T13:24:53.606Z,3.00
2018-10-21T13:25:57.016Z,3.37
2018-10-21T13:27:00.788Z,2.83
2018-10-21T13:28:04.345Z,2.62
2018-10-21T13:29:08.125Z,3.00
2018-10-21T13:30:16.576Z,2.75
2018-10-21T13:31:25.161Z,3.08
2018-10-21T13:32:28.302Z,3.27
2018-10-21T13:33:32.557Z,2.60
2018-10-21T13:34:35.791Z,2.70
2018-10-21T13:35:39.766Z,2.98
2018-10-21T13:36:43.437Z,2.95
2018-10-21T13:37:46.922Z,2.92
2018-10-21T13:38:51.745Z,2.70
2018-10-21T13:39:56.135Z,3.20
2018-10-21T13:40:59.189Z,3.17
2018-10-21T13:42:02.305Z,3.12
2018-10-21T13:43:06.467Z,3.33
2018-10-21T13:44:09.759Z,3.55
2018-10-21T13:45:12.792Z,2.87
2018-10-21T13:46:15.911Z,3.20
2018-10-21T13:47:19.061Z,2.90
2018-10-21T13:48:22.262Z,3.37
2018-10-21T13:49:25.678Z,3.40
2018-10-21T13:50:28.761Z,2.85
2018-10-21T13:51:32.731Z,3.45
2018-10-21T13:52:36.366Z,3.05
2018-10-21T13:53:40.138Z,3.30
2018-10-21T13:54:44.214Z,3.30
2018-10-21T13:55:48.343Z,3.12
2018-10-21T13:56:52.794Z,3.47
2018-10-21T13:57:56.141Z,3.50
2018-10-21T13:58:59.625Z,2.85
2018-10-21T14:00:02.948Z,3.35
2018-10-21T14:01:06.867Z,2.92
2018-10-21T14:02:09.784Z,2.90
2018-10-21T14:03:12.870Z,3.20
2018-10-21T14:04:16.028Z,2.90
2018-10-21T14:05:19.561Z,3.08
2018-10-21T14:06:23.106Z,3.02
2018-10-21T14:07:26.887Z,2.60
2018-10-21T14:08:31.852Z,2.80
2018-10-21T14:09:34.941Z,2.75